Time;durP1;ratioP1;P1;durP2;ratioP2;P2;SDS_P1;SDS_P2;PMS_P1;PMS_P2;Temp;Humidity;BMP_temperature;BMP_pressure;BME280_temperature;BME280_humidity;BME280_pressure;Samples;Min_cycle;Max_cycle;Signal;HPM_P1;HPM_P2
2022/08/06 00:02:10;;;;;;;14.25;9.90;;;19.70;99.90;;;;;;5017764;28;20456;-75
2022/08/06 00:04:37;;;;;;;10.57;9.50;;;19.60;99.90;;;;;;5018198;28;20046;-76
2022/08/06 00:07:05;;;;;;;12.95;9.50;;;19.60;99.90;;;;;;5002063;28;20061;-75
2022/08/06 00:09:32;;;;;;;12.43;9.48;;;19.50;99.90;;;;;;5019344;28;20048;-76
2022/08/06 00:12:02;;;;;;;11.25;8.95;;;19.50;99.90;;;;;;5018453;28;20120;-76
2022/08/06 00:14:30;;;;;;;10.98;9.93;;;19.60;99.90;;;;;;5017079;28;20519;-74
2022/08/06 00:16:58;;;;;;;12.32;9.82;;;19.40;99.90;;;;;;5017344;28;20052;-75
2022/08/06 00:19:27;;;;;;;12.68;9.60;;;19.30;99.90;;;;;;5016782;28;20038;-75
2022/08/06 00:21:54;;;;;;;13.57;10.48;;;19.30;99.90;;;;;;5017462;28;20046;-76
2022/08/06 00:24:22;;;;;;;11.35;10.15;;;19.20;99.90;;;;;;5016553;28;20492;-76
2022/08/06 00:26:49;;;;;;;13.25;10.20;;;19.10;99.90;;;;;;5016968;28;20096;-75
2022/08/06 00:29:18;;;;;;;11.05;9.38;;;19.10;99.90;;;;;;5016764;28;20042;-76
2022/08/06 00:31:45;;;;;;;13.02;10.05;;;19.00;99.90;;;;;;5017013;28;20485;-75
2022/08/06 00:34:13;;;;;;;13.43;10.10;;;19.10;99.90;;;;;;5016678;28;20428;-77
2022/08/06 00:36:40;;;;;;;14.90;10.63;;;19.10;99.90;;;;;;5016686;28;20043;-75
2022/08/06 00:39:08;;;;;;;11.82;10.38;;;19.10;99.90;;;;;;5016345;28;20477;-75
2022/08/06 00:41:36;;;;;;;14.13;10.00;;;19.00;99.90;;;;;;5016485;28;20045;-74
2022/08/06 00:44:03;;;;;;;12.20;10.82;;;19.00;99.90;;;;;;4998714;28;20057;-75
2022/08/06 00:46:32;;;;;;;11.65;9.68;;;19.00;99.90;;;;;;5016500;28;20048;-75
2022/08/06 00:48:59;;;;;;;12.27;10.23;;;18.90;99.90;;;;;;5017006;28;20129;-75
2022/08/06 00:51:27;;;;;;;13.07;9.90;;;18.90;99.90;;;;;;5016190;28;20046;-75
2022/08/06 00:53:54;;;;;;;12.65;10.40;;;18.90;99.90;;;;;;5015839;28;20456;-76
2022/08/06 00:56:22;;;;;;;11.95;9.88;;;18.80;99.90;;;;;;5016175;28;20101;-76
2022/08/06 00:58:49;;;;;;;11.57;10.38;;;18.80;99.90;;;;;;5016447;28;20452;-76
2022/08/06 01:01:16;;;;;;;13.20;11.07;;;18.80;99.90;;;;;;5016503;28;20441;-75
2022/08/06 01:03:45;;;;;;;12.85;9.95;;;18.70;99.90;;;;;;5015874;28;20042;-75
2022/08/06 01:06:13;;;;;;;12.73;10.32;;;18.70;99.90;;;;;;4998392;28;20058;-74
2022/08/06 01:08:40;;;;;;;11.77;10.00;;;18.70;99.90;;;;;;5016028;28;20456;-75
2022/08/06 01:11:07;;;;;;;11.60;10.05;;;18.70;99.90;;;;;;5016195;28;20042;-76
2022/08/06 01:13:37;;;;;;;11.75;10.27;;;18.60;99.90;;;;;;5034562;28;20090;-75
2022/08/06 01:16:11;;;;;;;16.50;13.45;;;18.60;99.90;;;;;;5020843;28;20077;-76
2022/08/06 01:18:45;;;;;;;15.90;10.18;;;18.60;99.90;;;;;;5016419;28;20107;-75
2022/08/06 01:21:30;;;;;;;19.38;15.63;;;18.50;99.90;;;;;;5016157;28;20042;-75
2022/08/06 01:24:52;;;;;;;11.07;9.90;;;18.50;99.90;;;;;;5015735;28;20061;-74
2022/08/06 01:27:35;;;;;;;12.75;10.35;;;18.50;99.90;;;;;;4954839;29;20053;-75
2022/08/06 01:30:07;;;;;;;12.48;10.02;;;18.50;1.00;;;;;;4968684;28;20571;-75
2022/08/06 01:32:39;;;;;;;35.88;29.50;;;18.40;1.00;;;;;;5009700;28;20053;-76
2022/08/06 01:35:11;;;;;;;11.35;9.68;;;18.40;1.00;;;;;;5025261;28;20100;-75
2022/08/06 01:37:44;;;;;;;14.95;10.55;;;18.30;1.00;;;;;;5016904;28;20102;-76
2022/08/06 01:40:17;;;;;;;11.18;9.70;;;18.30;1.00;;;;;;5017702;28;20069;-76
2022/08/06 01:42:47;;;;;;;11.60;10.40;;;18.30;1.00;;;;;;5017506;28;20054;-76
2022/08/06 01:45:18;;;;;;;13.65;9.90;;;18.20;1.00;;;;;;5016274;28;20100;-76
2022/08/06 01:47:51;;;;;;;11.32;9.80;;;18.20;62.90;;;;;;5015671;28;20062;-75
2022/08/06 01:50:21;;;;;;;12.00;9.68;;;18.10;8.80;;;;;;5014407;28;20108;-75
2022/08/06 01:52:50;;;;;;;15.68;10.90;;;18.20;98.30;;;;;;5015323;28;20121;-75
2022/08/06 01:55:21;;;;;;;10.45;9.30;;;18.20;21.30;;;;;;5015358;28;20045;-74
2022/08/06 01:57:53;;;;;;;13.25;10.43;;;18.20;1.00;;;;;;5015493;28;20046;-76
2022/08/06 02:00:21;;;;;;;11.55;10.05;;;18.20;1.00;;;;;;4997398;28;20072;-76
2022/08/06 02:02:50;;;;;;;10.30;9.27;;;18.10;99.90;;;;;;5015454;28;20042;-75
2022/08/06 02:05:20;;;;;;;11.30;9.63;;;18.10;11.30;;;;;;5022041;28;20052;-76
2022/08/06 02:07:52;;;;;;;10.55;9.40;;;18.10;91.30;;;;;;5022258;28;20042;-75
2022/08/06 02:10:22;;;;;;;10.80;9.70;;;18.00;26.70;;;;;;5019966;28;20120;-76
2022/08/06 02:12:52;;;;;;;13.00;9.75;;;18.00;46.00;;;;;;5018338;28;20050;-75
2022/08/06 02:15:24;;;;;;;11.00;9.90;;;18.00;90.20;;;;;;5025409;28;20049;-76
2022/08/06 02:17:55;;;;;;;10.90;9.80;;;17.90;19.70;;;;;;5025136;28;20038;-75
2022/08/06 02:20:35;;;;;;;11.02;9.48;;;17.90;90.70;;;;;;5017527;28;20096;-76
2022/08/06 02:23:05;;;;;;;13.40;9.43;;;17.90;99.90;;;;;;5014758;28;20046;-74
2022/08/06 02:25:33;;;;;;;11.85;9.88;;;17.90;99.90;;;;;;5014501;28;20041;-76
2022/08/06 02:28:05;;;;;;;14.85;9.60;;;17.90;99.90;;;;;;5014399;28;20401;-75
2022/08/06 02:30:38;;;;;;;10.98;9.75;;;17.80;99.90;;;;;;5032510;28;20042;-75
2022/08/06 02:33:06;;;;;;;10.90;9.80;;;17.70;99.90;;;;;;5034264;28;20080;-77
2022/08/06 02:35:36;;;;;;;12.00;9.70;;;17.70;99.90;;;;;;5019758;28;20408;-75
2022/08/06 02:38:10;;;;;;;14.45;10.70;;;17.60;99.90;;;;;;5022189;28;20072;-75
2022/08/06 02:40:43;;;;;;;12.90;10.63;;;17.60;99.90;;;;;;5035290;28;20042;-77
2022/08/06 02:43:17;;;;;;;14.30;10.50;;;17.60;99.90;;;;;;5035480;28;20042;-75
2022/08/06 02:45:49;;;;;;;11.85;10.50;;;17.60;99.90;;;;;;5038591;28;20041;-76
2022/08/06 02:48:24;;;;;;;11.02;9.90;;;17.50;99.90;;;;;;5038910;28;20026;-75
2022/08/06 02:50:53;;;;;;;11.60;10.35;;;17.50;99.90;;;;;;5037503;28;20099;-76
2022/08/06 02:53:27;;;;;;;13.32;9.90;;;17.50;99.90;;;;;;5016427;28;20053;-76
2022/08/06 02:55:57;;;;;;;13.38;10.25;;;17.50;99.90;;;;;;5014403;28;20046;-75
2022/08/06 02:58:33;;;;;;;11.48;9.65;;;17.40;99.90;;;;;;5014522;28;20045;-76
2022/08/06 03:01:05;;;;;;;11.40;9.38;;;17.40;99.90;;;;;;5014455;28;20045;-75
2022/08/06 03:03:33;;;;;;;13.80;10.55;;;17.40;99.90;;;;;;5013947;28;20046;-75
2022/08/06 03:06:04;;;;;;;11.38;10.15;;;17.30;99.90;;;;;;5007152;28;20077;-75
2022/08/06 03:08:33;;;;;;;12.02;9.48;;;17.30;99.90;;;;;;5028839;28;20042;-75
2022/08/06 03:11:02;;;;;;;11.88;10.52;;;17.30;99.90;;;;;;4999831;28;20038;-75
2022/08/06 03:13:31;;;;;;;11.10;10.00;;;17.30;99.90;;;;;;5017791;28;20193;-76
2022/08/06 03:16:01;;;;;;;13.32;10.25;;;17.20;99.90;;;;;;5017951;28;20073;-75
2022/08/06 03:18:31;;;;;;;13.15;10.27;;;17.20;99.90;;;;;;5015648;28;20054;-76
2022/08/06 03:20:59;;;;;;;12.85;10.15;;;17.20;99.90;;;;;;5027224;28;20038;-76
2022/08/06 03:23:29;;;;;;;11.50;10.05;;;17.10;99.90;;;;;;5037256;28;20053;-74
2022/08/06 03:25:57;;;;;;;17.33;11.73;;;17.10;99.90;;;;;;5023375;28;20382;-76
2022/08/06 03:28:26;;;;;;;13.07;10.95;;;17.00;99.90;;;;;;5014510;28;20042;-75
2022/08/06 03:30:57;;;;;;;14.95;10.25;;;17.10;99.90;;;;;;5034057;28;20042;-76
2022/08/06 03:33:25;;;;;;;13.63;10.48;;;17.00;99.90;;;;;;5033817;28;20044;-76
2022/08/06 03:35:54;;;;;;;12.18;10.73;;;17.00;99.90;;;;;;5014579;28;20049;-77
2022/08/06 03:38:23;;;;;;;14.38;9.63;;;17.00;99.90;;;;;;5013870;28;20588;-76
2022/08/06 03:40:51;;;;;;;10.82;9.73;;;17.00;99.90;;;;;;5013908;28;20089;-76
2022/08/06 03:43:19;;;;;;;11.95;9.13;;;17.00;99.90;;;;;;5013696;28;20042;-75
2022/08/06 03:45:53;;;;;;;13.30;10.20;;;17.00;99.90;;;;;;5071052;23;20052;-74
2022/08/06 03:48:27;;;;;;;17.80;11.05;;;17.00;99.90;;;;;;5074845;28;20037;-72
2022/08/06 03:50:56;;;;;;;14.65;11.88;;;17.00;99.90;;;;;;5074128;28;20091;-75
2022/08/06 03:53:27;;;;;;;15.25;11.20;;;16.90;99.90;;;;;;5074008;28;20055;-74
2022/08/06 03:55:58;;;;;;;16.15;11.82;;;17.00;99.90;;;;;;5087921;28;20047;-74
2022/08/06 03:58:26;;;;;;;13.85;10.35;;;17.00;99.90;;;;;;5074921;28;20050;-73
2022/08/06 04:00:59;;;;;;;13.07;10.13;;;17.00;99.90;;;;;;5088915;28;20336;-75
2022/08/06 04:03:29;;;;;;;15.25;10.60;;;17.00;99.90;;;;;;5072302;28;20048;-74
2022/08/06 04:05:57;;;;;;;16.50;10.52;;;17.10;99.90;;;;;;5072617;28;20097;-75
2022/08/06 04:08:25;;;;;;;18.13;10.95;;;17.20;99.90;;;;;;5054934;28;20392;-74
2022/08/06 04:10:53;;;;;;;13.75;10.10;;;17.40;99.90;;;;;;5054823;28;20076;-74
2022/08/06 04:13:23;;;;;;;15.10;9.73;;;17.80;99.90;;;;;;5058038;28;20075;-74
2022/08/06 04:15:52;;;;;;;11.98;9.43;;;18.30;99.90;;;;;;5097557;28;20048;-74
2022/08/06 04:18:22;;;;;;;13.43;8.60;;;19.10;99.90;;;;;;5096997;28;20372;-75
2022/08/06 04:20:55;;;;;;;11.80;9.30;;;19.70;99.90;;;;;;5096613;28;20440;-74
2022/08/06 04:23:23;;;;;;;15.05;9.10;;;20.40;99.90;;;;;;5096528;28;20559;-74
2022/08/06 04:25:53;;;;;;;9.40;8.13;;;20.90;99.90;;;;;;5078221;28;20075;-75
2022/08/06 04:28:22;;;;;;;11.65;8.55;;;21.70;99.90;;;;;;5076050;28;20040;-74
2022/08/06 04:30:51;;;;;;;18.08;8.75;;;22.00;99.90;;;;;;5075904;28;20036;-75
2022/08/06 04:33:22;;;;;;;29.15;8.50;;;22.20;99.90;;;;;;5075934;28;20123;-76
2022/08/06 04:35:51;;;;;;;13.73;8.07;;;21.80;99.90;;;;;;5092370;28;20040;-75
2022/08/06 04:38:21;;;;;;;12.00;8.30;;;22.40;99.90;;;;;;5075966;28;20040;-74
2022/08/06 04:40:49;;;;;;;11.32;7.90;;;22.70;99.90;;;;;;5075936;28;20047;-73
2022/08/06 04:43:17;;;;;;;10.40;8.15;;;23.30;99.90;;;;;;5057516;28;20083;-74
2022/08/06 04:45:45;;;;;;;17.65;8.52;;;23.70;99.90;;;;;;5075309;28;20135;-74
2022/08/06 04:48:14;;;;;;;13.45;8.15;;;23.50;99.90;;;;;;5057875;28;20155;-74
2022/08/06 04:50:42;;;;;;;13.13;9.70;;;23.10;99.90;;;;;;5057851;28;20048;-75
2022/08/06 04:53:11;;;;;;;12.80;8.82;;;22.80;99.90;;;;;;5077050;28;20041;-74
2022/08/06 04:55:40;;;;;;;15.98;9.32;;;22.50;99.90;;;;;;5087625;28;20040;-75
2022/08/06 04:58:10;;;;;;;15.25;9.50;;;22.30;99.90;;;;;;5096813;28;20097;-75
2022/08/06 05:00:40;;;;;;;13.18;9.63;;;22.10;99.90;;;;;;5077780;28;20135;-74
2022/08/06 05:03:07;;;;;;;18.58;9.05;;;21.80;99.90;;;;;;5076851;28;20047;-74
2022/08/06 05:05:39;;;;;;;16.75;9.13;;;21.70;99.90;;;;;;5095526;28;20048;-74
2022/08/06 05:08:08;;;;;;;16.52;9.98;;;21.60;99.90;;;;;;5096189;28;20055;-76
2022/08/06 05:10:42;;;;;;;12.85;9.38;;;21.50;99.90;;;;;;5095678;28;20032;-74
2022/08/06 05:13:14;;;;;;;13.55;10.55;;;21.40;99.90;;;;;;5093951;28;20093;-75
2022/08/06 05:15:44;;;;;;;15.15;9.55;;;21.60;99.90;;;;;;5075302;28;20472;-74
2022/08/06 05:18:16;;;;;;;10.65;8.73;;;21.70;99.90;;;;;;5081108;28;20044;-74
2022/08/06 05:20:50;;;;;;;40.80;12.63;;;21.90;99.90;;;;;;5074696;28;20071;-75
2022/08/06 05:23:21;;;;;;;17.00;12.13;;;22.10;99.90;;;;;;5080385;28;20492;-74
2022/08/06 05:25:50;;;;;;;15.10;9.00;;;22.40;99.90;;;;;;5075758;28;20047;-75
2022/08/06 05:28:18;;;;;;;16.15;10.73;;;23.30;99.90;;;;;;5074877;28;20043;-76
2022/08/06 05:30:46;;;;;;;16.45;10.40;;;23.80;99.90;;;;;;5094716;28;20105;-75
2022/08/06 05:33:24;;;;;;;20.15;9.68;;;23.50;99.90;;;;;;5094658;28;20384;-74
2022/08/06 05:35:51;;;;;;;14.98;8.35;;;23.80;99.90;;;;;;5077102;28;20359;-75
2022/08/06 05:38:19;;;;;;;13.63;8.43;;;24.10;99.90;;;;;;5074821;28;20040;-73
2022/08/06 05:40:46;;;;;;;22.75;9.00;;;24.50;99.90;;;;;;5074525;28;20036;-75
2022/08/06 05:43:15;;;;;;;20.08;8.43;;;24.80;99.90;;;;;;5074631;28;20041;-75
2022/08/06 05:45:44;;;;;;;13.15;8.07;;;24.80;99.90;;;;;;5075513;28;20499;-76
2022/08/06 05:48:14;;;;;;;15.27;8.00;;;24.90;99.90;;;;;;5070773;28;20036;-74
2022/08/06 05:50:47;;;;;;;17.70;7.93;;;25.10;99.90;;;;;;5076844;28;20441;-75
2022/08/06 05:53:23;;;;;;;16.15;8.27;;;25.20;99.90;;;;;;5094559;28;20044;-75
2022/08/06 05:55:55;;;;;;;13.82;9.20;;;25.30;99.90;;;;;;5093665;28;20043;-75
2022/08/06 05:58:30;;;;;;;11.95;9.10;;;25.20;99.90;;;;;;5065216;28;20110;-73
2022/08/06 06:01:02;;;;;;;11.63;8.02;;;25.30;99.90;;;;;;5062844;28;20044;-75
2022/08/06 06:03:29;;;;;;;16.38;8.50;;;25.20;99.90;;;;;;5064762;28;20476;-75
2022/08/06 06:05:59;;;;;;;16.88;9.38;;;25.40;99.90;;;;;;5094764;28;20040;-74
2022/08/06 06:08:27;;;;;;;13.90;7.68;;;25.80;99.90;;;;;;5094015;28;20093;-74
2022/08/06 06:10:55;;;;;;;14.98;9.70;;;26.00;99.90;;;;;;5093875;28;20521;-76
2022/08/06 06:13:25;;;;;;;12.75;8.25;;;25.90;99.90;;;;;;5093801;28;20489;-74
2022/08/06 06:15:58;;;;;;;13.93;8.98;;;25.80;99.90;;;;;;5079436;28;20044;-74
2022/08/06 06:18:40;;;;;;;13.30;8.70;;;25.80;99.90;;;;;;5073391;28;20478;-74
2022/08/06 06:21:14;;;;;;;13.15;8.68;;;25.90;99.90;;;;;;5063123;28;20037;-74
2022/08/06 06:23:47;;;;;;;12.68;9.73;;;26.10;99.90;;;;;;5055447;28;20057;-74
2022/08/06 06:26:20;;;;;;;13.32;9.27;;;26.00;99.90;;;;;;5073639;28;20101;-73
2022/08/06 06:28:56;;;;;;;12.68;9.48;;;25.80;99.90;;;;;;5077990;28;20706;-74
2022/08/06 06:31:26;;;;;;;;;;;26.00;99.90;;;;;;5073732;28;20541;-75
2022/08/06 06:34:01;;;;;;;17.10;10.13;;;26.20;99.90;;;;;;5054996;28;19920;-75
2022/08/06 06:36:35;;;;;;;16.02;9.80;;;26.60;99.90;;;;;;5064840;28;20091;-75
2022/08/06 06:39:06;;;;;;;24.70;11.48;;;26.90;99.90;;;;;;5069634;28;20488;-75
2022/08/06 06:41:40;;;;;;;15.07;8.68;;;27.10;99.90;;;;;;5063325;28;20045;-73
2022/08/06 06:44:15;;;;;;;15.55;10.90;;;27.40;99.90;;;;;;5070647;28;20056;-74
2022/08/06 06:46:48;;;;;;;13.85;10.43;;;27.70;99.90;;;;;;5113522;28;20420;-74
2022/08/06 06:49:21;;;;;;;13.77;9.63;;;27.80;99.80;;;;;;5114340;28;20044;-74
2022/08/06 06:52:05;;;;;;;14.75;9.80;;;28.10;98.70;;;;;;5114390;28;20036;-74
2022/08/06 06:54:36;;;;;;;15.90;10.32;;;28.20;98.00;;;;;;5112571;28;20177;-76
2022/08/06 06:57:05;;;;;;;11.38;9.80;;;28.30;97.40;;;;;;5073465;28;20036;-74
2022/08/06 06:59:39;;;;;;;19.58;10.43;;;28.50;97.00;;;;;;5073813;28;20041;-73
2022/08/06 07:02:07;;;;;;;15.18;10.10;;;28.80;95.70;;;;;;5075287;28;20040;-75
2022/08/06 07:04:37;;;;;;;10.10;8.80;;;28.80;94.30;;;;;;5105587;28;20036;-76
2022/08/06 07:07:05;;;;;;;13.45;9.98;;;28.70;93.30;;;;;;5114122;28;20418;-74
2022/08/06 07:09:36;;;;;;;15.93;9.15;;;28.70;93.60;;;;;;5114005;28;20050;-74
2022/08/06 07:12:04;;;;;;;12.48;9.38;;;28.80;92.80;;;;;;5083312;28;20050;-73
2022/08/06 07:14:37;;;;;;;14.50;9.07;;;28.80;92.40;;;;;;5073985;28;20116;-74
2022/08/06 07:17:06;;;;;;;13.05;8.98;;;29.10;92.00;;;;;;5072929;28;20446;-74
2022/08/06 07:19:34;;;;;;;13.70;9.90;;;29.40;91.00;;;;;;5088093;28;20074;-74
2022/08/06 07:22:03;;;;;;;16.10;8.80;;;29.90;90.20;;;;;;5081608;28;20048;-75
2022/08/06 07:24:34;;;;;;;18.33;10.15;;;29.90;88.90;;;;;;5073314;28;20044;-75
2022/08/06 07:27:02;;;;;;;18.95;12.50;;;30.10;87.80;;;;;;5072565;28;20493;-75
2022/08/06 07:29:31;;;;;;;21.65;10.70;;;30.40;87.00;;;;;;5102520;28;20047;-75
2022/08/06 07:32:01;;;;;;;20.60;10.98;;;30.40;85.60;;;;;;5100411;28;20036;-74
2022/08/06 07:34:28;;;;;;;19.92;11.48;;;30.40;85.40;;;;;;5066262;28;20049;-74
2022/08/06 07:36:57;;;;;;;20.83;14.95;;;30.50;84.70;;;;;;5092764;28;20045;-74
2022/08/06 07:39:28;;;;;;;26.42;19.58;;;30.50;81.80;;;;;;5076179;28;20036;-73
2022/08/06 07:41:58;;;;;;;18.88;13.30;;;30.50;81.10;;;;;;5089866;28;20082;-74
2022/08/06 07:44:28;;;;;;;16.52;12.48;;;30.60;79.00;;;;;;5077951;28;20491;-76
2022/08/06 07:46:59;;;;;;;14.82;11.90;;;30.70;76.90;;;;;;5081480;28;20493;-75
2022/08/06 07:49:37;;;;;;;16.45;11.80;;;30.70;76.10;;;;;;5076756;28;20090;-75
2022/08/06 07:52:06;;;;;;;17.40;12.13;;;30.90;74.30;;;;;;5088903;28;20048;-74
2022/08/06 07:54:34;;;;;;;21.80;16.08;;;31.10;72.30;;;;;;5092968;28;20052;-71
2022/08/06 07:57:02;;;;;;;20.60;13.88;;;31.30;72.50;;;;;;5080573;28;20044;-75
2022/08/06 07:59:30;;;;;;;13.93;10.60;;;31.50;71.50;;;;;;5087766;28;20044;-74
2022/08/06 08:01:58;;;;;;;14.43;10.20;;;31.60;70.70;;;;;;5097149;28;20040;-74
2022/08/06 08:07:12;;;;;;;11.73;9.03;;;31.70;70.00;;;;;;5086702;28;20514;-74
2022/08/06 08:09:40;;;;;;;13.27;8.65;;;31.70;68.20;;;;;;5073069;28;20729;-74
2022/08/06 08:12:08;;;;;;;13.40;9.60;;;31.60;67.90;;;;;;5083885;28;20545;-73
2022/08/06 08:14:36;;;;;;;11.98;9.00;;;31.50;68.80;;;;;;5076581;28;20098;-72
2022/08/06 08:17:04;;;;;;;10.23;8.32;;;31.30;68.90;;;;;;5083285;28;20039;-72
2022/08/06 08:19:33;;;;;;;16.98;10.82;;;31.20;68.30;;;;;;5106730;28;20039;-73
2022/08/06 08:22:02;;;;;;;16.63;10.60;;;31.20;68.80;;;;;;5093023;28;20395;-72
2022/08/06 08:24:31;;;;;;;15.93;11.25;;;31.30;68.90;;;;;;5099219;28;20360;-73
2022/08/06 08:26:59;;;;;;;18.40;10.32;;;31.50;68.80;;;;;;5098150;28;20093;-72
2022/08/06 08:29:27;;;;;;;15.60;10.10;;;31.50;68.50;;;;;;5105242;28;20092;-73
2022/08/06 08:31:57;;;;;;;18.83;11.75;;;31.60;68.20;;;;;;5117055;28;20035;-73
2022/08/06 08:34:24;;;;;;;15.52;10.43;;;31.70;67.20;;;;;;5113947;28;20101;-72
2022/08/06 08:36:52;;;;;;;13.80;9.88;;;31.90;66.70;;;;;;5096403;28;20422;-73
2022/08/06 08:39:20;;;;;;;21.58;12.40;;;32.10;66.40;;;;;;5096459;28;20116;-73
2022/08/06 08:41:52;;;;;;;16.20;10.30;;;32.20;66.20;;;;;;5096257;28;20466;-73
2022/08/06 08:44:27;;;;;;;13.45;10.13;;;32.40;66.50;;;;;;5096734;28;20419;-72
2022/08/06 08:46:58;;;;;;;15.63;10.33;;;32.70;65.40;;;;;;5109828;28;20123;-74
2022/08/06 08:49:31;;;;;;;13.85;9.80;;;32.90;64.50;;;;;;5119313;28;20451;-73
2022/08/06 08:52:00;;;;;;;13.23;9.52;;;33.00;64.00;;;;;;5109552;28;20053;-73
2022/08/06 08:54:30;;;;;;;13.00;10.82;;;33.10;64.10;;;;;;5096577;28;20048;-72
2022/08/06 08:56:59;;;;;;;10.02;8.13;;;33.00;62.60;;;;;;5085714;28;20518;-72
2022/08/06 08:59:27;;;;;;;10.70;7.63;;;33.00;61.30;;;;;;5077310;28;20056;-72
2022/08/06 09:01:54;;;;;;;10.50;7.68;;;32.70;61.40;;;;;;5095729;28;20078;-73
2022/08/06 09:04:22;;;;;;;10.35;8.00;;;32.80;61.20;;;;;;5091344;28;20048;-73
2022/08/06 09:06:49;;;;;;;14.38;8.90;;;32.90;61.60;;;;;;5094707;28;20052;-72
2022/08/06 09:09:16;;;;;;;14.32;8.80;;;33.20;61.00;;;;;;5095177;28;20040;-72
2022/08/06 09:11:44;;;;;;;11.00;8.52;;;33.40;60.50;;;;;;5095118;28;20044;-73
2022/08/06 09:14:13;;;;;;;11.90;8.00;;;33.40;59.50;;;;;;5094746;28;20048;-72
2022/08/06 09:16:40;;;;;;;10.77;8.10;;;33.70;59.60;;;;;;5087282;28;20127;-73
2022/08/06 09:19:08;;;;;;;12.02;6.82;;;33.80;59.30;;;;;;5095165;28;20036;-72
2022/08/06 09:21:35;;;;;;;7.97;7.07;;;34.10;57.50;;;;;;5081773;28;20072;-72
2022/08/06 09:24:02;;;;;;;11.90;8.27;;;34.30;57.00;;;;;;5094909;28;20547;-71
2022/08/06 09:26:33;;;;;;;9.13;7.18;;;34.50;56.80;;;;;;5086145;28;20037;-72
2022/08/06 09:29:01;;;;;;;13.85;7.30;;;34.70;55.60;;;;;;5086542;28;20043;-73
2022/08/06 09:31:34;;;;;;;11.20;7.25;;;34.70;55.90;;;;;;5086657;28;20087;-73
2022/08/06 09:34:04;;;;;;;10.98;7.47;;;34.70;55.60;;;;;;5073585;28;20090;-71
2022/08/06 09:36:43;;;;;;;9.68;7.97;;;34.70;55.30;;;;;;5092198;28;20043;-73
2022/08/06 09:39:10;;;;;;;9.93;8.52;;;34.70;55.20;;;;;;5094666;28;20566;-71
2022/08/06 09:41:47;;;;;;;8.43;5.03;;;34.80;55.30;;;;;;5095197;28;20119;-72
2022/08/06 09:44:15;;;;;;;5.35;4.20;;;34.80;51.60;;;;;;5076826;28;20055;-72
2022/08/06 09:46:45;;;;;;;5.65;4.57;;;34.40;50.30;;;;;;5095243;28;20123;-72
2022/08/06 09:49:14;;;;;;;9.27;4.25;;;34.30;50.60;;;;;;5092007;28;20036;-72
2022/08/06 09:51:42;;;;;;;4.63;4.10;;;34.40;50.00;;;;;;5082793;28;20538;-73
2022/08/06 09:54:12;;;;;;;5.35;4.22;;;34.30;50.20;;;;;;5104087;28;20479;-74
2022/08/06 09:56:40;;;;;;;6.38;4.20;;;34.50;49.70;;;;;;5089424;28;20062;-72
2022/08/06 09:59:09;;;;;;;5.18;4.53;;;34.50;49.60;;;;;;5095834;28;20043;-72
2022/08/06 10:01:40;;;;;;;9.82;4.30;;;34.70;49.00;;;;;;5081749;28;20044;-72
2022/08/06 10:04:14;;;;;;;6.03;4.15;;;34.70;48.50;;;;;;5074033;28;20064;-73
2022/08/06 10:06:52;;;;;;;5.63;4.07;;;34.60;48.30;;;;;;5074517;28;20049;-73
2022/08/06 10:09:20;;;;;;;7.93;4.47;;;34.60;48.70;;;;;;5074303;28;20079;-73
2022/08/06 10:11:47;;;;;;;8.27;4.55;;;34.40;48.60;;;;;;5075980;28;20044;-73
2022/08/06 10:14:23;;;;;;;4.80;4.30;;;34.40;48.50;;;;;;5093850;28;20128;-73
2022/08/06 10:17:05;;;;;;;5.18;4.30;;;34.30;48.20;;;;;;5095305;28;20028;-73
2022/08/06 10:19:34;;;;;;;7.35;4.63;;;33.70;48.40;;;;;;5093694;28;20093;-73
2022/08/06 10:22:05;;;;;;;6.78;4.20;;;33.40;49.40;;;;;;5075030;28;20037;-73
2022/08/06 10:24:36;;;;;;;5.05;4.55;;;33.40;49.20;;;;;;5073742;28;20040;-73
2022/08/06 10:27:06;;;;;;;6.38;4.50;;;33.40;49.30;;;;;;5073568;28;20525;-73
2022/08/06 10:29:35;;;;;;;8.52;4.50;;;33.30;49.40;;;;;;5093717;28;20036;-73
2022/08/06 10:32:04;;;;;;;6.03;4.53;;;33.40;49.60;;;;;;5114195;28;20452;-73
2022/08/06 10:34:35;;;;;;;5.32;4.38;;;33.40;49.30;;;;;;5113892;28;20039;-73
2022/08/06 10:37:07;;;;;;;5.60;4.85;;;33.80;49.40;;;;;;5114367;28;20066;-73
2022/08/06 10:39:38;;;;;;;7.85;4.80;;;34.00;49.20;;;;;;5114502;28;20071;-73
2022/08/06 10:42:06;;;;;;;7.47;5.03;;;34.30;49.00;;;;;;5114403;28;20077;-73
2022/08/06 10:44:35;;;;;;;4.40;3.90;;;34.50;48.50;;;;;;5113810;28;20082;-73
2022/08/06 10:47:04;;;;;;;8.18;5.18;;;34.10;48.20;;;;;;5114513;28;20043;-73
2022/08/06 10:49:33;;;;;;;7.43;4.40;;;33.80;48.50;;;;;;5114294;28;20039;-73
2022/08/06 10:52:01;;;;;;;6.18;4.45;;;33.70;49.10;;;;;;5114300;28;20035;-73
2022/08/06 10:54:31;;;;;;;6.28;4.40;;;33.80;49.20;;;;;;5112646;28;20044;-73
2022/08/06 10:56:59;;;;;;;7.18;5.22;;;33.70;49.50;;;;;;5093538;28;20044;-72
2022/08/06 10:59:26;;;;;;;7.95;5.30;;;33.40;49.40;;;;;;5093516;28;20047;-72
2022/08/06 11:02:04;;;;;;;6.78;5.10;;;33.40;49.40;;;;;;5093427;28;20501;-73
2022/08/06 11:04:46;;;;;;;10.20;4.85;;;33.40;50.00;;;;;;5092991;28;20499;-72
2022/08/06 11:07:43;;;;;;;9.15;4.88;;;33.60;49.70;;;;;;5075504;28;20063;-73
2022/08/06 11:10:30;;;;;;;6.75;5.32;;;33.80;49.60;;;;;;5093382;28;20559;-73
2022/08/06 11:13:07;;;;;;;8.02;5.07;;;33.90;48.90;;;;;;5093444;28;20047;-74
2022/08/06 11:15:36;;;;;;;7.75;5.70;;;34.20;49.20;;;;;;5075242;28;20543;-73
2022/08/06 11:18:05;;;;;;;10.05;5.57;;;34.30;49.00;;;;;;5093455;28;20044;-73
2022/08/06 11:20:39;;;;;;;8.25;5.65;;;34.30;48.90;;;;;;5093359;28;20074;-73
2022/08/06 11:23:27;;;;;;;7.68;5.70;;;33.90;48.70;;;;;;5096721;28;20040;-73
2022/08/06 11:25:57;;;;;;;5.43;4.82;;;34.10;48.40;;;;;;5097264;28;20448;-73
2022/08/06 11:29:00;;;;;;;7.18;4.80;;;34.20;48.30;;;;;;5079522;28;20418;-72
2022/08/06 11:31:46;;;;;;;6.57;4.50;;;34.20;47.80;;;;;;5116164;28;20055;-73
2022/08/06 11:34:15;;;;;;;12.40;6.70;;;34.20;48.10;;;;;;5121220;28;20044;-73
2022/08/06 11:36:51;;;;;;;8.55;5.03;;;34.30;47.90;;;;;;5111334;28;20052;-72
2022/08/06 11:39:21;;;;;;;8.48;5.07;;;34.40;47.70;;;;;;5119571;28;20047;-73
2022/08/06 11:42:00;;;;;;;7.80;4.90;;;34.40;47.90;;;;;;5118525;28;20035;-73
2022/08/06 11:44:32;;;;;;;6.32;4.88;;;34.50;48.10;;;;;;5117837;28;20044;-73
2022/08/06 11:47:16;;;;;;;5.72;5.00;;;33.90;48.20;;;;;;5118161;28;20495;-73
2022/08/06 11:49:45;;;;;;;6.22;4.60;;;33.80;49.10;;;;;;5109781;28;20048;-73
2022/08/06 11:52:42;;;;;;;7.68;4.72;;;33.90;49.00;;;;;;5117533;28;20101;-72
2022/08/06 11:55:13;;;;;;;7.55;5.13;;;34.20;48.60;;;;;;5090869;28;20040;-73
2022/08/06 11:57:41;;;;;;;5.30;4.80;;;34.40;48.90;;;;;;5089365;28;20091;-73
2022/08/06 12:00:14;;;;;;;8.15;4.95;;;34.60;47.70;;;;;;5096966;28;20039;-73
2022/08/06 12:02:59;;;;;;;6.35;5.47;;;34.50;48.10;;;;;;5096876;28;20097;-73
2022/08/06 12:05:42;;;;;;;6.95;5.93;;;34.80;47.00;;;;;;5097001;28;20464;-73
2022/08/06 12:08:26;;;;;;;7.53;5.50;;;34.70;47.50;;;;;;5096726;28;20040;-73
2022/08/06 12:11:35;;;;;;;7.65;5.05;;;34.10;48.70;;;;;;5096700;28;20044;-73
2022/08/06 12:14:05;;;;;;;6.05;4.72;;;33.80;49.00;;;;;;5091321;28;20058;-73
2022/08/06 12:16:40;;;;;;;8.25;5.15;;;33.60;48.90;;;;;;5096746;28;20044;-73
2022/08/06 12:19:14;;;;;;;7.15;4.70;;;33.60;49.30;;;;;;5076538;28;20123;-73
2022/08/06 12:21:45;;;;;;;7.43;4.77;;;33.70;49.40;;;;;;5076476;28;20060;-73
2022/08/06 12:24:12;;;;;;;7.28;5.40;;;33.70;49.60;;;;;;5075894;28;20060;-74
2022/08/06 12:26:40;;;;;;;6.30;5.00;;;34.00;49.50;;;;;;5076156;28;20045;-72
2022/08/06 12:29:09;;;;;;;6.70;5.22;;;34.20;48.20;;;;;;5088829;28;20035;-72
2022/08/06 12:31:38;;;;;;;9.73;5.45;;;34.10;48.50;;;;;;5116587;28;20043;-74
2022/08/06 12:34:07;;;;;;;5.35;4.75;;;34.30;48.20;;;;;;5115537;28;20055;-73
2022/08/06 12:36:36;;;;;;;6.82;4.53;;;34.20;48.10;;;;;;5116562;28;20126;-72
2022/08/06 12:39:06;;;;;;;10.07;4.95;;;33.90;47.80;;;;;;5116676;28;20074;-73
2022/08/06 12:41:42;;;;;;;8.43;4.82;;;33.70;48.20;;;;;;5117335;28;20044;-73
2022/08/06 12:44:15;;;;;;;6.28;5.20;;;33.70;48.50;;;;;;5116616;28;20043;-74
2022/08/06 12:46:42;;;;;;;5.13;4.63;;;33.80;48.20;;;;;;5122467;28;20463;-72
2022/08/06 12:49:10;;;;;;;5.32;4.57;;;34.00;46.10;;;;;;5124432;28;20043;-73
2022/08/06 12:51:37;;;;;;;7.18;4.95;;;34.20;46.00;;;;;;5123730;28;20047;-74
2022/08/06 12:54:07;;;;;;;17.90;5.82;;;34.30;46.00;;;;;;5120476;28;20435;-73
2022/08/06 12:56:39;;;;;;;6.07;4.63;;;34.20;46.60;;;;;;5102923;28;20063;-73
2022/08/06 12:59:12;;;;;;;5.88;5.07;;;33.80;47.40;;;;;;5081488;28;20059;-73